Jomi — C6VK4 — position and weather

sailwx.info

Track history (hours):
 
Tides and Currents Weather Stations Pressure Air Temp Water Temp Dewpoint Dewpoint Depression Visibility Wind Speed Wind Dir Waves Ship Positions

Jomi

Last reported at 2016-Dec-03 19:33 UTC. Time now 2016-Dec-03 19:44 UTC.
Position N 51°54' E 004°21'.

Length 88 m; draft 6.1 m.

Type: Cargo ship. MMSI: 309701000.

Date/timePositionNaut miles runAvg speedWind from/ knotsBaromVisibWave heightAir tempDewpointWater temp
2016-Dec-03 19:33N 51°54' E 004°21'0 0.0
2016-Dec-03 18:33N 51°54' E 004°21'0 0.0
2016-Dec-03 17:33N 51°54' E 004°21'0 0.0
2016-Dec-03 16:33N 51°54' E 004°21'0 0.0
2016-Dec-03 15:33N 51°54' E 004°21'0 0.0
2016-Dec-03 14:33N 51°54' E 004°21'0 0.0
2016-Dec-03 13:33N 51°54' E 004°21'0 0.0
2016-Dec-03 12:33N 51°54' E 004°21'0 0.0
2016-Dec-03 11:33N 51°54' E 004°21'0 0.0
2016-Dec-03 10:33N 51°54' E 004°21'0 0.0
2016-Dec-03 09:33N 51°54' E 004°21'0 0.0
2016-Dec-03 08:33N 51°54' E 004°21'0 0.0
2016-Dec-03 07:33N 51°54' E 004°21'0 0.0
2016-Dec-03 06:33N 51°54' E 004°21'0 0.0
2016-Dec-03 05:32N 51°54' E 004°21'0 0.0
2016-Dec-03 04:33N 51°54' E 004°21'0 0.0
2016-Dec-03 03:33N 51°54' E 004°21'0 0.0
2016-Dec-03 02:33N 51°54' E 004°21'0 0.0
2016-Dec-03 01:33N 51°54' E 004°21'4 3.6
2016-Dec-03 00:33N 51°54' E 004°16'6 6.3
2016-Dec-02 23:33N 51°58' E 004°08'8 8.0
2016-Dec-02 22:33N 52°00' E 003°55'9 8.5
2016-Dec-02 21:32N 52°07' E 003°46'196 7.2
2016-Dec-01 18:22N 54°01' E 008°11'5 5.7
2016-Dec-01 17:33N 54°00' E 008°19'9 9.4
2016-Dec-01 16:33N 53°58' E 008°35'1111.1
2016-Dec-01 15:33N 53°51' E 008°48'9 9.2
2016-Dec-01 14:33N 53°52' E 009°04'3 3.2
2016-Dec-01 13:33N 53°54' E 009°09'6 6.1
2016-Dec-01 12:34N 53°58' E 009°16'29 7.0
2016-Dec-01 08:26N 54°21' E 009°46'7 7.8
2016-Dec-01 07:33N 54°21' E 009°57'7 6.7
2016-Dec-01 06:33N 54°22' E 010°09'1 1.2
2016-Dec-01 05:33N 54°22' E 010°11'8 7.8
2016-Dec-01 04:33N 54°29' E 010°16'7 7.4
2016-Dec-01 03:33N 54°32' E 010°28'8 7.6
2016-Dec-01 02:33N 54°35' E 010°41'7 7.4
2016-Dec-01 01:33N 54°35' E 010°53'7 6.6
2016-Dec-01 00:33N 54°36' E 011°05'6 6.5
2016-Nov-30 23:33N 54°34' E 011°16'7 6.6
2016-Nov-30 22:33N 54°32' E 011°26'7 7.3
2016-Nov-30 21:33N 54°29' E 011°38'7 6.8
2016-Nov-30 20:33N 54°26' E 011°48'8 7.6
2016-Nov-30 19:33N 54°27' E 012°02'7 6.8
2016-Nov-30 18:33N 54°30' E 012°11'8 8.2
2016-Nov-30 17:33N 54°38' E 012°17'9 9.1
2016-Nov-30 16:33N 54°43' E 012°30'46 8.4
2016-Nov-30 11:03N 55°01' E 013°45'4 7.8
2016-Nov-30 10:32N 55°02' E 013°51'8 7.6
2016-Nov-30 09:33N 55°05' E 014°04'8 7.7
2016-Nov-30 08:33N 55°10' E 014°13'8 7.7
2016-Nov-30 07:33N 55°16' E 014°22'7 7.4
2016-Nov-30 06:33N 55°22' E 014°30'7 6.9
2016-Nov-30 05:33N 55°27' E 014°39'7 6.6
2016-Nov-30 04:33N 55°30' E 014°48'6 6.1
2016-Nov-30 03:33N 55°33' E 014°58'6 5.2
2016-Nov-30 02:24N 55°36' E 015°07'  
2016-Nov-24 23:07N 55°54' E 014°59'610.8
2016-Nov-24 22:32N 55°54' E 014°47'1510.1
2016-Nov-24 21:06N 55°56' E 014°21'1 0.2
2016-Nov-24 14:24N 55°56' E 014°20'0 0.0
2016-Nov-24 12:30N 55°56' E 014°20'0 0.0
2016-Nov-24 08:30N 55°56' E 014°20'0 0.0
2016-Nov-23 20:12N 55°56' E 014°20'  
Track history (hours):
 
Tides and Currents Weather Stations Pressure Air Temp Water Temp Dewpoint Dewpoint Depression Visibility Wind Speed Wind Dir Waves Ship Positions

Jomi

Last reported at 2016-Dec-03 19:33 UTC. Time now 2016-Dec-03 19:44 UTC.
Position N 51°54' E 004°21'.

Length 88 m; draft 6.1 m.

Type: Cargo ship. MMSI: 309701000.

Date/timePositionNaut miles runAvg speedWind from/ knotsBaromVisibWave heightAir tempDewpointWater temp
2016-Dec-03 19:33N 51°54' E 004°21'0 0.0
2016-Dec-03 18:33N 51°54' E 004°21'0 0.0
2016-Dec-03 17:33N 51°54' E 004°21'0 0.0
2016-Dec-03 16:33N 51°54' E 004°21'0 0.0
2016-Dec-03 15:33N 51°54' E 004°21'0 0.0
2016-Dec-03 14:33N 51°54' E 004°21'0 0.0
2016-Dec-03 13:33N 51°54' E 004°21'0 0.0
2016-Dec-03 12:33N 51°54' E 004°21'0 0.0
2016-Dec-03 11:33N 51°54' E 004°21'0 0.0
2016-Dec-03 10:33N 51°54' E 004°21'0 0.0
2016-Dec-03 09:33N 51°54' E 004°21'0 0.0
2016-Dec-03 08:33N 51°54' E 004°21'0 0.0
2016-Dec-03 07:33N 51°54' E 004°21'0 0.0
2016-Dec-03 06:33N 51°54' E 004°21'0 0.0
2016-Dec-03 05:32N 51°54' E 004°21'0 0.0
2016-Dec-03 04:33N 51°54' E 004°21'0 0.0
2016-Dec-03 03:33N 51°54' E 004°21'0 0.0
2016-Dec-03 02:33N 51°54' E 004°21'0 0.0
2016-Dec-03 01:33N 51°54' E 004°21'4 3.6
2016-Dec-03 00:33N 51°54' E 004°16'6 6.3
2016-Dec-02 23:33N 51°58' E 004°08'8 8.0
2016-Dec-02 22:33N 52°00' E 003°55'9 8.5
2016-Dec-02 21:32N 52°07' E 003°46'196 7.2
2016-Dec-01 18:22N 54°01' E 008°11'5 5.7
2016-Dec-01 17:33N 54°00' E 008°19'9 9.4
2016-Dec-01 16:33N 53°58' E 008°35'1111.1
2016-Dec-01 15:33N 53°51' E 008°48'9 9.2
2016-Dec-01 14:33N 53°52' E 009°04'3 3.2
2016-Dec-01 13:33N 53°54' E 009°09'6 6.1
2016-Dec-01 12:34N 53°58' E 009°16'29 7.0
2016-Dec-01 08:26N 54°21' E 009°46'7 7.8
2016-Dec-01 07:33N 54°21' E 009°57'7 6.7
2016-Dec-01 06:33N 54°22' E 010°09'1 1.2
2016-Dec-01 05:33N 54°22' E 010°11'8 7.8
2016-Dec-01 04:33N 54°29' E 010°16'7 7.4
2016-Dec-01 03:33N 54°32' E 010°28'8 7.6
2016-Dec-01 02:33N 54°35' E 010°41'7 7.4
2016-Dec-01 01:33N 54°35' E 010°53'7 6.6
2016-Dec-01 00:33N 54°36' E 011°05'6 6.5
2016-Nov-30 23:33N 54°34' E 011°16'7 6.6
2016-Nov-30 22:33N 54°32' E 011°26'7 7.3
2016-Nov-30 21:33N 54°29' E 011°38'7 6.8
2016-Nov-30 20:33N 54°26' E 011°48'8 7.6
2016-Nov-30 19:33N 54°27' E 012°02'7 6.8
2016-Nov-30 18:33N 54°30' E 012°11'8 8.2
2016-Nov-30 17:33N 54°38' E 012°17'9 9.1
2016-Nov-30 16:33N 54°43' E 012°30'46 8.4
2016-Nov-30 11:03N 55°01' E 013°45'4 7.8
2016-Nov-30 10:32N 55°02' E 013°51'8 7.6
2016-Nov-30 09:33N 55°05' E 014°04'8 7.7
2016-Nov-30 08:33N 55°10' E 014°13'8 7.7
2016-Nov-30 07:33N 55°16' E 014°22'7 7.4
2016-Nov-30 06:33N 55°22' E 014°30'7 6.9
2016-Nov-30 05:33N 55°27' E 014°39'7 6.6
2016-Nov-30 04:33N 55°30' E 014°48'6 6.1
2016-Nov-30 03:33N 55°33' E 014°58'6 5.2
2016-Nov-30 02:24N 55°36' E 015°07'  
2016-Nov-24 23:07N 55°54' E 014°59'610.8
2016-Nov-24 22:32N 55°54' E 014°47'1510.1
2016-Nov-24 21:06N 55°56' E 014°21'1 0.2
2016-Nov-24 14:24N 55°56' E 014°20'0 0.0
2016-Nov-24 12:30N 55°56' E 014°20'0 0.0
2016-Nov-24 08:30N 55°56' E 014°20'0 0.0
2016-Nov-23 20:12N 55°56' E 014°20'  

Dump ship's entire track history